IL91 weather

Testoni Farms Airport
Cornell, Illinois, United States

Public forecast

Using degrees Fahrenheit for public forecast. Weather courtesy of forecast.io.

METAR (pilot weather report)

Closest report is Pontiac Municipal Airport, 5.9 nm (11.0 km) SSE. Retrieved 2019/08/18 05:35 UTC (5 minutes ago):

KPNT 180535Z AUTO 00000KT 7SM CLR 20/20 A2989 RMK AO2 T02000196

TAF (pilot weather forecast)

Forecast is more than 12 hours old.

Closest forecast is Central Illinois Regional Airport at Bloomington-Normal, 34.8 nm (64.4 km) SSW. Retrieved 2019/08/17 00:33 UTC (1 day ago):

TAF KBMI 172330Z 1800/1824 17007KT P6SM FEW030 BKN120 FM181100 19008KT P6SM VCTS BKN035CB FM181400 21012KT P6SM BKN035